Date,TemperatureHighF,TemperatureAvgF,TemperatureLowF,DewpointHighF,DewpointAvgF,DewpointLowF,HumidityHigh,HumidityAvg,HumidityLow,PressureMaxIn,PressureMinIn,WindSpeedMaxMPH,WindSpeedAvgMPH,GustSpeedMaxMPH,PrecipitationSumIn
2013-6-1,82,72,66,71,61,54,97,71,42,30.02,29.65,18,1,20,0.01
2013-6-2,74,66,60,58,56,52,84,70,56,30.09,30.00,13,1,15,0.00
2013-6-3,81,69,55,66,60,53,94,74,53,30.04,29.86,16,0,17,0.00
2013-6-4,84,75,68,70,66,63,88,75,61,29.99,29.76,12,0,17,0.00
2013-6-5,84,74,67,69,67,65,97,78,57,29.99,29.74,13,1,17,0.00
2013-6-6,79,70,64,65,60,53,92,71,44,29.86,29.79,15,2,15,0.00
2013-6-7,82,72,62,59,56,53,79,60,40,29.90,29.79,15,0,17,0.00
2013-6-8,83,73,62,64,59,55,82,63,43,29.82,29.67,17,1,19,0.00
2013-6-9,90,79,70,66,61,54,81,56,33,29.79,29.67,15,0,17,0.00
2013-6-10,94,83,73,71,67,58,79,60,41,29.88,29.74,14,1,17,0.00
2013-6-11,94,85,76,72,69,64,74,59,39,29.95,29.87,19,3,21,0.00
2013-6-12,94,84,76,74,71,68,84,65,47,29.96,29.88,20,3,24,0.00
2013-6-13,98,85,77,74,71,68,79,64,44,30.03,29.92,10,0,13,0.00
2013-6-14,95,85,74,77,72,69,83,68,50,29.99,29.89,13,1,14,0.00
2013-6-15,86,79,73,76,73,69,92,83,67,30.00,29.92,17,3,22,0.03
2013-6-16,92,76,67,75,71,65,96,85,55,29.98,29.87,20,1,20,1.00
2013-6-17,79,72,67,70,68,66,97,86,71,29.99,29.83,13,1,20,0.49
2013-6-18,92,78,68,72,67,60,95,71,40,30.03,29.93,7,0,9,0.00
2013-6-19,86,78,67,70,67,64,92,71,54,30.03,29.93,14,0,16,0.00
2013-6-20,92,82,73,76,72,67,82,71,57,30.01,29.92,19,2,21,0.00
2013-6-21,93,84,77,75,71,66,85,67,42,30.03,29.95,17,2,23,0.00
2013-6-22,92,83,74,72,70,65,86,65,44,30.00,29.88,20,2,21,0.00
2013-6-23,92,84,77,72,70,67,83,66,47,29.93,29.86,19,3,23,0.00
2013-6-24,91,83,75,72,70,66,85,66,46,30.00,29.89,20,2,23,0.00
2013-6-25,89,83,77,74,72,70,83,70,57,29.92,29.79,18,3,27,0.00
2013-6-26,95,86,78,77,73,69,76,67,54,29.90,29.80,15,2,19,0.00
2013-6-27,100,88,79,79,74,64,84,65,47,29.95,29.84,13,0,22,0.00
2013-6-28,98,87,78,72,66,58,73,50,33,29.97,29.82,13,1,15,0.00
2013-6-29,92,83,74,63,58,52,68,44,29,29.92,29.81,18,1,21,0.00
2013-6-30,84,76,69,59,56,53,65,51,39,29.98,29.87,15,2,21,0.00